Time;durP1;ratioP1;P1;durP2;ratioP2;P2;SDS_P1;SDS_P2;PMS_P1;PMS_P2;Temp;Humidity;BMP_temperature;BMP_pressure;BME280_temperature;BME280_humidity;BME280_pressure;Samples;Min_cycle;Max_cycle;Signal;HPM_P1;HPM_P2
2021/12/31 00:00:27;;;;;;;0.10;0.10;;;;;;;5.89;93.91;99526.84;5076276;28;20123;-80
2021/12/31 00:02:52;;;;;;;0.00;0.00;;;;;;;5.89;93.88;99537.47;5076253;28;20047;-80
2021/12/31 00:05:18;;;;;;;0.00;0.00;;;;;;;5.58;94.61;99489.03;5075832;28;20422;-81
2021/12/31 00:07:45;;;;;;;0.75;0.75;;;;;;;5.80;94.97;99523.75;5076083;28;20028;-80
2021/12/31 00:10:11;;;;;;;0.00;0.00;;;;;;;5.77;94.95;99522.34;5075825;28;20024;-80
2021/12/31 00:12:37;;;;;;;0.00;0.00;;;;;;;5.82;95.74;99534.91;5076147;28;20077;-80
2021/12/31 00:15:04;;;;;;;0.32;0.32;;;;;;;5.80;95.27;99536.19;5075741;28;20024;-80
2021/12/31 00:17:30;;;;;;;0.00;0.00;;;;;;;5.82;94.79;99544.72;5075925;28;20562;-80
2021/12/31 00:20:06;;;;;;;0.10;0.10;;;;;;;5.76;95.07;99535.84;5075681;28;20123;-80
2021/12/31 00:25:16;;;;;;;0.08;0.08;;;;;;;5.76;94.49;99533.19;5093886;28;20042;-80
2021/12/31 00:27:41;;;;;;;0.08;0.08;;;;;;;5.72;95.42;99534.69;5075782;28;20024;-80
2021/12/31 00:30:07;;;;;;;0.30;0.30;;;;;;;5.67;95.10;99538.03;5075467;28;20032;-80
2021/12/31 00:32:33;;;;;;;0.00;0.00;;;;;;;5.77;95.57;99543.59;5075587;28;20032;-80
2021/12/31 00:34:59;;;;;;;0.00;0.00;;;;;;;5.74;94.88;99552.00;5075560;28;20031;-80
2021/12/31 00:37:35;;;;;;;0.50;0.50;;;;;;;5.81;95.44;99561.69;5075673;28;20031;-80
2021/12/31 00:40:02;;;;;;;0.00;0.00;;;;;;;5.88;95.90;99570.34;5075443;28;20037;-80
2021/12/31 00:42:28;;;;;;;0.00;0.00;;;;;;;5.83;94.62;99555.09;5075288;28;20119;-79
2021/12/31 00:44:53;;;;;;;0.88;0.80;;;;;;;5.89;94.67;99561.34;5075448;28;20161;-80
2021/12/31 00:47:19;;;;;;;0.15;0.15;;;;;;;5.88;94.76;99557.91;5074982;28;20028;-80
2021/12/31 00:49:45;;;;;;;0.08;0.08;;;;;;;5.88;94.44;99557.06;5071713;28;20109;-80
2021/12/31 00:52:11;;;;;;;0.30;0.30;;;;;;;5.93;94.88;99552.69;5071721;28;20040;-79
2021/12/31 00:54:38;;;;;;;0.00;0.00;;;;;;;5.93;94.77;99543.91;5071883;28;20033;-79
2021/12/31 00:57:05;;;;;;;0.08;0.08;;;;;;;5.92;94.57;99529.84;5071596;28;20036;-80
2021/12/31 00:59:31;;;;;;;0.00;0.00;;;;;;;5.95;93.81;99531.22;5071430;28;20028;-80
2021/12/31 01:02:03;;;;;;;0.00;0.00;;;;;;;5.96;93.92;99526.69;5071748;28;20032;-80
2021/12/31 01:04:30;;;;;;;0.00;0.00;;;;;;;6.01;93.99;99529.50;5071749;28;20494;-80
2021/12/31 01:06:57;;;;;;;0.00;0.00;;;;;;;6.06;93.79;99534.94;5071675;28;20032;-80
2021/12/31 01:09:23;;;;;;;0.00;0.00;;;;;;;6.09;93.76;99531.78;5071526;28;20145;-79
2021/12/31 01:11:49;;;;;;;0.00;0.00;;;;;;;6.15;93.59;99538.84;5071576;28;20098;-80
2021/12/31 01:14:30;;;;;;;0.08;0.08;;;;;;;6.05;93.95;99512.06;5071349;28;20119;-80
2021/12/31 01:17:02;;;;;;;0.00;0.00;;;;;;;6.20;93.84;99533.63;5071523;28;20475;-80
2021/12/31 01:19:48;;;;;;;0.00;0.00;;;;;;;6.09;93.06;99519.34;5071457;28;20032;-81
2021/12/31 01:22:22;;;;;;;0.10;0.10;;;;;;;6.23;93.48;99527.84;5071289;28;20052;-81
2021/12/31 01:24:47;;;;;;;0.00;0.00;;;;;;;6.22;92.97;99528.06;5071367;28;20498;-81
2021/12/31 01:27:13;;;;;;;0.00;0.00;;;;;;;6.21;93.41;99523.81;5071107;28;20024;-81
2021/12/31 01:29:39;;;;;;;0.00;0.00;;;;;;;6.26;93.29;99531.88;5071112;28;20028;-81
2021/12/31 01:32:05;;;;;;;0.00;0.00;;;;;;;6.25;93.27;99527.63;5070985;28;20039;-81
2021/12/31 01:34:31;;;;;;;0.00;0.00;;;;;;;6.27;93.19;99527.38;5071107;28;20029;-81
2021/12/31 01:36:59;;;;;;;0.00;0.00;;;;;;;6.27;93.33;99527.38;5071205;28;20021;-81
2021/12/31 01:39:24;;;;;;;0.00;0.00;;;;;;;6.31;93.36;99539.97;5070786;28;20025;-81
2021/12/31 01:41:50;;;;;;;0.00;0.00;;;;;;;6.29;92.96;99526.09;5070329;28;20609;-81
2021/12/31 01:44:15;;;;;;;0.00;0.00;;;;;;;6.30;93.33;99521.56;5070731;28;20028;-82
2021/12/31 01:46:55;;;;;;;0.00;0.00;;;;;;;6.31;93.21;99518.72;5070954;28;20074;-81
2021/12/31 01:49:22;;;;;;;0.00;0.00;;;;;;;6.35;92.91;99527.00;5070364;28;20052;-81
2021/12/31 01:51:48;;;;;;;0.00;0.00;;;;;;;6.36;93.15;99533.91;5070752;28;20119;-81
2021/12/31 01:54:13;;;;;;;0.00;0.00;;;;;;;6.36;93.47;99528.59;5070212;28;20115;-82
2021/12/31 01:56:39;;;;;;;0.00;0.00;;;;;;;6.37;93.51;99512.44;5070398;28;20396;-81
2021/12/31 01:59:07;;;;;;;0.00;0.00;;;;;;;6.38;93.54;99502.63;5070481;28;20033;-81
2021/12/31 02:01:34;;;;;;;0.00;0.00;;;;;;;6.41;93.09;99502.94;5070422;28;20048;-81
2021/12/31 02:03:59;;;;;;;0.00;0.00;;;;;;;6.34;93.09;99483.69;5070794;28;20029;-81
2021/12/31 02:06:26;;;;;;;0.00;0.00;;;;;;;6.38;92.66;99500.78;5070283;28;20385;-81
2021/12/31 02:08:51;;;;;;;0.00;0.00;;;;;;;6.38;92.29;99503.44;5070501;28;20039;-82
2021/12/31 02:11:18;;;;;;;0.00;0.00;;;;;;;6.39;91.82;99504.22;5069345;28;20020;-81
2021/12/31 02:13:43;;;;;;;0.00;0.00;;;;;;;6.37;92.11;99493.03;5070392;28;20028;-81
2021/12/31 02:16:09;;;;;;;0.00;0.00;;;;;;;6.37;92.03;99499.16;5070156;28;20051;-81
2021/12/31 02:18:35;;;;;;;0.00;0.00;;;;;;;6.36;92.02;99499.38;5070333;28;20507;-80
2021/12/31 02:21:03;;;;;;;0.00;0.00;;;;;;;6.32;92.01;99492.94;5070246;28;20032;-80
2021/12/31 02:23:38;;;;;;;0.00;0.00;;;;;;;6.28;92.33;99484.63;5070409;28;20043;-81
2021/12/31 02:26:04;;;;;;;0.00;0.00;;;;;;;6.33;92.16;99498.00;5070003;28;20078;-81
2021/12/31 02:28:29;;;;;;;0.00;0.00;;;;;;;6.33;91.74;99498.00;5070160;28;20021;-81
2021/12/31 02:31:00;;;;;;;0.00;0.00;;;;;;;6.30;92.21;99487.03;5070108;28;20476;-81
2021/12/31 02:33:26;;;;;;;0.00;0.00;;;;;;;6.30;91.67;99481.72;5069886;28;20445;-81
2021/12/31 02:35:52;;;;;;;0.00;0.00;;;;;;;6.29;91.86;99490.78;5070141;28;20029;-81
2021/12/31 02:38:17;;;;;;;0.05;0.05;;;;;;;6.28;92.13;99491.81;5069851;28;20078;-81
2021/12/31 02:40:43;;;;;;;0.00;0.00;;;;;;;6.24;92.40;99492.28;5069843;28;20028;-79
2021/12/31 02:43:08;;;;;;;0.00;0.00;;;;;;;6.24;92.31;99494.91;5069911;28;20029;-81
2021/12/31 02:45:37;;;;;;;0.00;0.00;;;;;;;6.17;92.48;99488.94;5069619;28;20028;-81
2021/12/31 02:48:04;;;;;;;0.00;0.00;;;;;;;6.19;92.92;99494.84;5069951;28;20119;-80
2021/12/31 02:50:35;;;;;;;0.00;0.00;;;;;;;6.17;92.55;99498.78;5069612;28;20041;-81
2021/12/31 02:53:03;;;;;;;0.00;0.00;;;;;;;6.04;92.44;99489.19;5069580;28;20032;-81
2021/12/31 02:55:30;;;;;;;0.00;0.00;;;;;;;5.98;92.44;99482.16;5069574;28;20537;-81
2021/12/31 02:57:57;;;;;;;0.00;0.00;;;;;;;6.01;92.89;99500.31;5069794;28;20043;-81
2021/12/31 03:00:23;;;;;;;0.00;0.00;;;;;;;5.94;93.56;99489.78;5069408;28;20032;-81
2021/12/31 03:02:50;;;;;;;0.00;0.00;;;;;;;5.88;93.77;99498.69;5069696;28;20029;-81
2021/12/31 03:05:16;;;;;;;1.33;0.88;;;;;;;5.81;94.07;99490.84;5069523;28;20029;-81
2021/12/31 03:07:44;;;;;;;0.00;0.00;;;;;;;5.82;94.11;99503.06;5069693;28;20107;-81
2021/12/31 03:10:10;;;;;;;0.00;0.00;;;;;;;5.77;94.47;99516.22;5069334;28;20032;-81
2021/12/31 03:12:38;;;;;;;0.25;0.25;;;;;;;5.71;94.60;99510.03;5069627;28;20024;-82
2021/12/31 03:15:04;;;;;;;0.00;0.00;;;;;;;5.65;94.10;99513.59;5069690;28;20028;-81
2021/12/31 03:17:30;;;;;;;0.00;0.00;;;;;;;5.67;94.34;99521.31;5069252;28;20127;-81
2021/12/31 03:20:08;;;;;;;0.00;0.00;;;;;;;5.61;94.35;99515.91;5069431;28;20107;-81
2021/12/31 03:22:33;;;;;;;0.10;0.10;;;;;;;5.56;94.56;99505.16;5071406;28;20124;-81
2021/12/31 03:24:59;;;;;;;0.00;0.00;;;;;;;5.60;94.43;99516.13;5073621;28;20024;-81
2021/12/31 03:27:24;;;;;;;0.00;0.00;;;;;;;5.60;94.21;99516.13;5073423;28;20123;-81
2021/12/31 03:29:50;;;;;;;0.00;0.00;;;;;;;5.58;94.12;99520.88;5073400;28;20376;-81
2021/12/31 03:32:15;;;;;;;0.00;0.00;;;;;;;5.55;94.40;99516.00;5073172;28;20028;-81
2021/12/31 03:34:40;;;;;;;0.00;0.00;;;;;;;5.53;94.00;99520.72;5073426;28;20035;-81
2021/12/31 03:37:06;;;;;;;0.40;0.40;;;;;;;5.51;94.34;99518.31;5073368;28;20472;-81
2021/12/31 03:39:31;;;;;;;0.00;0.00;;;;;;;5.51;93.99;99522.84;5073118;28;20075;-81
2021/12/31 03:41:57;;;;;;;0.00;0.00;;;;;;;5.52;94.16;99535.84;5073312;28;20033;-81
2021/12/31 03:44:22;;;;;;;0.00;0.00;;;;;;;5.49;94.05;99533.66;5073081;28;20036;-81
2021/12/31 03:46:48;;;;;;;0.00;0.00;;;;;;;5.41;93.71;99534.00;5073240;28;20062;-81
2021/12/31 03:49:13;;;;;;;0.00;0.00;;;;;;;5.45;93.85;99543.13;5072651;28;20091;-81
2021/12/31 03:51:39;;;;;;;0.00;0.00;;;;;;;5.42;93.88;99546.22;5073204;28;20029;-82
2021/12/31 03:54:04;;;;;;;0.00;0.00;;;;;;;5.40;94.52;99549.09;5072611;28;20072;-81
2021/12/31 03:56:32;;;;;;;0.28;0.28;;;;;;;5.39;94.63;99565.25;5072379;28;20028;-79
2021/12/31 03:58:59;;;;;;;0.00;0.00;;;;;;;5.37;94.45;99567.31;5072751;28;20028;-81
2021/12/31 04:01:25;;;;;;;0.00;0.00;;;;;;;5.35;94.51;99570.22;5072633;28;20255;-82
2021/12/31 04:03:51;;;;;;;0.00;0.00;;;;;;;5.41;94.92;99579.09;5072862;28;20032;-81
2021/12/31 04:06:16;;;;;;;0.00;0.00;;;;;;;5.39;94.50;99573.22;5072330;28;20054;-81
2021/12/31 04:08:42;;;;;;;0.00;0.00;;;;;;;5.38;94.79;99574.25;5072701;28;20151;-81
2021/12/31 04:11:10;;;;;;;0.00;0.00;;;;;;;5.38;94.79;99577.72;5072595;28;20028;-81
2021/12/31 04:13:35;;;;;;;0.00;0.00;;;;;;;5.39;94.80;99575.88;5072661;28;20033;-79
2021/12/31 04:16:01;;;;;;;0.00;0.00;;;;;;;5.42;95.03;99586.81;5072406;28;20079;-80
2021/12/31 04:18:26;;;;;;;0.00;0.00;;;;;;;5.42;94.89;99591.31;5072505;28;20063;-79
2021/12/31 04:20:55;;;;;;;0.00;0.00;;;;;;;5.40;94.39;99588.91;5072197;28;20059;-80
2021/12/31 04:23:29;;;;;;;0.00;0.00;;;;;;;5.41;95.02;99589.72;5072339;28;20120;-80
2021/12/31 04:25:56;;;;;;;0.00;0.00;;;;;;;5.25;94.57;99570.78;5072530;28;20025;-80
2021/12/31 04:28:22;;;;;;;0.00;0.00;;;;;;;5.45;94.47;99596.16;5072227;28;20060;-80
2021/12/31 04:30:47;;;;;;;0.05;0.05;;;;;;;5.41;94.45;99590.50;5072360;28;20021;-80
2021/12/31 04:33:13;;;;;;;0.00;0.00;;;;;;;5.45;94.47;99604.13;5071454;28;20040;-79
2021/12/31 04:35:39;;;;;;;0.00;0.00;;;;;;;5.40;94.72;99593.41;5072130;28;20043;-80
2021/12/31 04:38:04;;;;;;;0.00;0.00;;;;;;;5.45;94.16;99601.47;5072362;28;20021;-79
2021/12/31 04:40:29;;;;;;;0.00;0.00;;;;;;;5.42;94.19;99593.97;5072044;28;20510;-79
2021/12/31 04:42:55;;;;;;;0.00;0.00;;;;;;;5.42;94.21;99599.25;5072153;28;20021;-79
2021/12/31 04:45:21;;;;;;;0.00;0.00;;;;;;;5.46;94.09;99608.41;5072010;28;20392;-78
2021/12/31 04:47:47;;;;;;;0.00;0.00;;;;;;;5.39;93.87;99603.19;5072108;28;20091;-79
2021/12/31 04:50:12;;;;;;;0.00;0.00;;;;;;;5.44;93.55;99613.13;5071365;28;20048;-79
2021/12/31 04:52:38;;;;;;;0.00;0.00;;;;;;;5.37;93.78;99605.28;5071964;28;20069;-79
2021/12/31 04:55:05;;;;;;;0.00;0.00;;;;;;;5.35;93.44;99615.31;5071736;28;20403;-79
2021/12/31 04:57:30;;;;;;;0.00;0.00;;;;;;;5.29;93.34;99605.59;5071563;28;20113;-81
2021/12/31 04:59:56;;;;;;;0.00;0.00;;;;;;;5.29;93.04;99610.91;5071811;28;20056;-79
2021/12/31 05:02:21;;;;;;;0.00;0.00;;;;;;;5.23;93.28;99615.25;5071603;28;20039;-82
2021/12/31 05:04:47;;;;;;;0.00;0.00;;;;;;;5.20;93.21;99623.69;5071453;28;20036;-81
2021/12/31 05:07:12;;;;;;;0.00;0.00;;;;;;;5.11;93.43;99617.91;5071545;28;20032;-81
2021/12/31 05:09:38;;;;;;;0.57;0.57;;;;;;;5.11;93.13;99623.19;5071571;28;20400;-81
2021/12/31 05:12:05;;;;;;;0.60;0.52;;;;;;;5.13;93.21;99623.75;5071616;28;20074;-81
2021/12/31 05:14:31;;;;;;;0.00;0.00;;;;;;;5.12;93.34;99630.09;5071310;28;20033;-81
2021/12/31 05:16:58;;;;;;;0.00;0.00;;;;;;;5.05;93.54;99625.94;5071462;28;20043;-81
2021/12/31 05:19:24;;;;;;;0.00;0.00;;;;;;;5.03;93.38;99625.34;5071183;28;20037;-81
2021/12/31 05:21:49;;;;;;;0.00;0.00;;;;;;;5.03;93.56;99628.81;5071503;28;20086;-81
2021/12/31 05:24:16;;;;;;;0.10;0.10;;;;;;;5.05;93.93;99631.22;5071127;28;20103;-81
2021/12/31 05:26:42;;;;;;;0.00;0.00;;;;;;;4.90;93.41;99610.44;5070911;28;20040;-81
2021/12/31 05:29:08;;;;;;;0.00;0.00;;;;;;;4.97;93.52;99635.81;5071150;28;20032;-81
2021/12/31 05:31:33;;;;;;;0.00;0.00;;;;;;;4.96;93.64;99634.19;5070942;28;20039;-81
2021/12/31 05:33:59;;;;;;;0.00;0.00;;;;;;;5.00;93.99;99639.06;5070706;28;20111;-81
2021/12/31 05:36:24;;;;;;;0.00;0.00;;;;;;;4.93;93.39;99639.13;5070752;28;20040;-81
2021/12/31 05:38:50;;;;;;;0.00;0.00;;;;;;;5.00;94.04;99655.75;5071004;28;20028;-81
2021/12/31 05:41:16;;;;;;;0.00;0.00;;;;;;;4.97;93.73;99648.25;5070737;28;20056;-81
2021/12/31 05:43:41;;;;;;;0.00;0.00;;;;;;;4.99;93.53;99664.72;5070940;28;20032;-81
2021/12/31 05:46:07;;;;;;;0.00;0.00;;;;;;;4.93;93.74;99666.47;5070852;28;20124;-81
2021/12/31 05:48:32;;;;;;;0.00;0.00;;;;;;;4.96;93.32;99684.56;5070101;28;20500;-82
2021/12/31 05:50:58;;;;;;;0.00;0.00;;;;;;;4.97;93.98;99674.78;5070722;28;20086;-81
2021/12/31 05:53:23;;;;;;;0.43;0.43;;;;;;;4.99;94.05;99672.69;5070276;28;20476;-81
2021/12/31 05:55:49;;;;;;;0.00;0.00;;;;;;;5.05;93.72;99668.34;5070729;28;20037;-81
2021/12/31 05:58:14;;;;;;;0.00;0.00;;;;;;;5.00;93.37;99663.72;5070590;28;20044;-81
2021/12/31 06:00:40;;;;;;;0.00;0.00;;;;;;;5.04;93.59;99661.41;5070131;28;20028;-81
2021/12/31 06:03:05;;;;;;;0.00;0.00;;;;;;;5.10;93.26;99664.00;5070543;28;20024;-81
2021/12/31 06:05:31;;;;;;;0.00;0.00;;;;;;;5.14;93.54;99664.34;5070036;28;20484;-81
2021/12/31 06:07:57;;;;;;;0.25;0.25;;;;;;;5.14;92.95;99661.72;5070359;28;20028;-81
2021/12/31 06:10:26;;;;;;;0.20;0.20;;;;;;;5.08;92.65;99655.44;5070148;28;20028;-81
2021/12/31 06:12:57;;;;;;;0.03;0.03;;;;;;;5.21;92.91;99667.72;5070381;28;20501;-81
2021/12/31 06:15:25;;;;;;;0.00;0.00;;;;;;;5.23;92.43;99656.91;5070136;28;20466;-81
2021/12/31 06:17:50;;;;;;;0.00;0.00;;;;;;;5.35;92.80;99657.72;5070283;28;20035;-82
2021/12/31 06:20:16;;;;;;;0.00;0.00;;;;;;;5.40;92.59;99657.06;5070179;28;20033;-81
2021/12/31 06:22:41;;;;;;;0.00;0.00;;;;;;;5.48;92.95;99651.44;5070087;28;20032;-81
2021/12/31 06:25:07;;;;;;;0.00;0.00;;;;;;;5.59;92.84;99641.84;5070159;28;20491;-81
2021/12/31 06:27:33;;;;;;;0.00;0.00;;;;;;;5.67;92.16;99635.44;5069954;28;20032;-81
2021/12/31 06:29:58;;;;;;;0.00;0.00;;;;;;;5.74;91.43;99628.97;5070020;28;20067;-81
2021/12/31 06:32:24;;;;;;;0.10;0.10;;;;;;;5.82;91.09;99633.13;5069637;28;20028;-81
2021/12/31 06:34:49;;;;;;;0.00;0.00;;;;;;;5.92;91.04;99644.00;5070109;28;20038;-81
2021/12/31 06:37:14;;;;;;;0.00;0.00;;;;;;;5.98;90.56;99644.09;5069956;28;20036;-81
2021/12/31 06:39:42;;;;;;;0.00;0.00;;;;;;;6.06;90.17;99646.44;5069702;28;20025;-81
2021/12/31 06:42:08;;;;;;;0.00;0.00;;;;;;;6.12;89.80;99648.19;5069884;28;20033;-81
2021/12/31 06:44:38;;;;;;;0.00;0.00;;;;;;;6.14;89.02;99653.25;5070579;28;20507;-81
2021/12/31 06:47:04;;;;;;;0.00;0.00;;;;;;;6.20;88.88;99655.81;5069889;28;20028;-81
2021/12/31 06:49:30;;;;;;;0.00;0.00;;;;;;;6.18;88.74;99660.53;5069135;28;20041;-81
2021/12/31 06:51:55;;;;;;;0.00;0.00;;;;;;;6.15;88.07;99650.38;5069244;28;20041;-81
2021/12/31 06:54:21;;;;;;;0.10;0.10;;;;;;;6.22;88.52;99651.03;5069130;28;20028;-81
2021/12/31 06:56:46;;;;;;;0.00;0.00;;;;;;;6.27;87.69;99655.66;5069313;28;20123;-81
2021/12/31 06:59:12;;;;;;;0.00;0.00;;;;;;;6.27;89.08;99654.88;5069726;28;20036;-81
2021/12/31 07:01:37;;;;;;;0.00;0.00;;;;;;;6.28;87.69;99653.84;5069543;28;20039;-81
2021/12/31 07:04:03;;;;;;;0.35;0.35;;;;;;;6.33;88.43;99668.03;5071258;28;20040;-80
2021/12/31 07:06:28;;;;;;;0.00;0.00;;;;;;;6.34;88.54;99661.66;5069574;28;20502;-81
2021/12/31 07:08:54;;;;;;;0.50;0.50;;;;;;;6.41;88.60;99669.53;5069679;28;20021;-80
2021/12/31 07:11:22;;;;;;;0.00;0.00;;;;;;;6.37;88.83;99669.19;5069346;28;20029;-81
2021/12/31 07:13:48;;;;;;;0.08;0.08;;;;;;;6.51;88.62;99672.41;5069672;28;20016;-81
2021/12/31 07:16:14;;;;;;;0.00;0.00;;;;;;;6.58;88.01;99680.25;5069263;28;20043;-81
2021/12/31 07:18:39;;;;;;;0.00;0.00;;;;;;;6.60;87.22;99685.34;5069377;28;20040;-81
2021/12/31 07:21:05;;;;;;;3.60;0.57;;;;;;;6.59;87.20;99689.81;5069617;28;20423;-81
2021/12/31 07:23:30;;;;;;;0.10;0.10;;;;;;;6.68;86.50;99684.97;5069238;28;20029;-81
2021/12/31 07:25:55;;;;;;;0.00;0.00;;;;;;;6.66;86.50;99693.16;5069656;28;20024;-81
2021/12/31 07:28:21;;;;;;;0.00;0.00;;;;;;;6.66;87.01;99697.69;5069241;28;20403;-81
2021/12/31 07:30:47;;;;;;;0.00;0.00;;;;;;;6.61;86.48;99692.25;5069128;28;20035;-81
2021/12/31 07:33:21;;;;;;;0.00;0.00;;;;;;;6.69;86.45;99713.97;5069545;28;20028;-81
2021/12/31 07:35:47;;;;;;;0.00;0.00;;;;;;;6.69;85.85;99699.88;5069489;28;20029;-81
2021/12/31 07:38:20;;;;;;;0.20;0.20;;;;;;;6.70;86.36;99696.16;5069481;28;20028;-81
2021/12/31 07:40:51;;;;;;;0.00;0.00;;;;;;;6.73;86.34;99715.13;5069154;28;20032;-81
2021/12/31 07:43:17;;;;;;;0.00;0.00;;;;;;;6.68;86.63;99701.72;5069405;28;20089;-81
2021/12/31 07:45:42;;;;;;;0.00;0.00;;;;;;;6.76;86.29;99703.19;5068981;28;20119;-81
2021/12/31 07:48:08;;;;;;;0.10;0.10;;;;;;;6.76;86.29;99707.72;5069140;28;20400;-81
2021/12/31 07:50:34;;;;;;;0.30;0.30;;;;;;;6.75;86.66;99706.94;5072115;28;20020;-81
2021/12/31 07:52:59;;;;;;;0.05;0.05;;;;;;;6.86;86.06;99719.38;5072191;28;20027;-81
2021/12/31 07:55:25;;;;;;;0.00;0.00;;;;;;;6.89;86.17;99718.09;5072261;28;20147;-80
2021/12/31 07:57:51;;;;;;;0.10;0.10;;;;;;;6.96;86.20;99718.78;5072536;28;20032;-80
2021/12/31 08:00:17;;;;;;;0.45;0.45;;;;;;;7.04;85.19;99734.38;5072437;28;20077;-80
2021/12/31 08:02:42;;;;;;;0.00;0.00;;;;;;;7.10;85.67;99732.59;5072007;28;20047;-81
2021/12/31 08:05:08;;;;;;;0.00;0.00;;;;;;;7.12;84.95;99727.88;5072311;28;20028;-80
2021/12/31 08:07:33;;;;;;;0.10;0.10;;;;;;;7.16;84.62;99734.31;5072003;28;20067;-80
2021/12/31 08:09:59;;;;;;;0.00;0.00;;;;;;;7.17;85.68;99737.81;5074590;28;20035;-81
2021/12/31 08:12:24;;;;;;;0.00;0.00;;;;;;;7.11;84.74;99736.09;5075252;28;20116;-81
2021/12/31 08:14:50;;;;;;;0.10;0.10;;;;;;;7.20;85.28;99742.63;5076080;28;20066;-81
2021/12/31 08:17:16;;;;;;;0.00;0.00;;;;;;;7.18;84.50;99742.88;5076054;28;20024;-81
2021/12/31 08:19:44;;;;;;;0.00;0.00;;;;;;;7.18;85.27;99739.41;5075644;28;20023;-81
2021/12/31 08:22:09;;;;;;;0.15;0.15;;;;;;;7.22;84.83;99743.22;5075834;28;20028;-81
2021/12/31 08:24:35;;;;;;;0.00;0.00;;;;;;;7.24;84.95;99735.00;5075072;28;20104;-81
2021/12/31 08:27:01;;;;;;;0.00;0.00;;;;;;;7.20;83.72;99734.66;5075658;28;20073;-81
2021/12/31 08:29:26;;;;;;;0.00;0.00;;;;;;;7.16;84.11;99730.84;5075403;28;20467;-81
2021/12/31 08:31:52;;;;;;;0.00;0.00;;;;;;;7.24;84.85;99740.31;5075468;28;20032;-81
2021/12/31 08:34:17;;;;;;;0.35;0.35;;;;;;;7.27;84.03;99743.31;5075592;28;20024;-81
2021/12/31 08:36:43;;;;;;;0.00;0.00;;;;;;;7.28;84.26;99744.94;5074389;28;20024;-81
2021/12/31 08:39:09;;;;;;;0.00;0.00;;;;;;;7.32;84.76;99739.94;5073095;28;20089;-81
2021/12/31 08:41:36;;;;;;;0.03;0.03;;;;;;;7.33;84.36;99737.03;5072677;28;20085;-81
2021/12/31 08:44:02;;;;;;;0.00;0.00;;;;;;;7.36;84.42;99741.06;5073158;28;20092;-81
2021/12/31 08:46:27;;;;;;;0.15;0.15;;;;;;;7.42;84.10;99734.81;5073644;28;20507;-81
2021/12/31 08:48:53;;;;;;;0.00;0.00;;;;;;;7.40;83.46;99730.75;5075351;28;20570;-80
2021/12/31 08:51:19;;;;;;;0.00;0.00;;;;;;;7.41;83.80;99732.38;5075134;28;20024;-81
2021/12/31 08:53:45;;;;;;;0.73;0.35;;;;;;;7.49;84.51;99732.00;5074960;28;20474;-80
2021/12/31 08:56:10;;;;;;;0.00;0.00;;;;;;;7.50;83.03;99723.78;5075082;28;20024;-81
2021/12/31 08:58:36;;;;;;;0.30;0.30;;;;;;;7.61;83.38;99724.78;5074596;28;20031;-81
2021/12/31 09:01:02;;;;;;;0.00;0.00;;;;;;;7.72;82.92;99715.09;5075235;28;20226;-81
2021/12/31 09:03:27;;;;;;;0.00;0.00;;;;;;;7.81;82.24;99719.00;5074785;28;20694;-81
2021/12/31 09:05:52;;;;;;;0.00;0.00;;;;;;;7.85;81.08;99712.13;5074907;28;20027;-81
2021/12/31 09:08:18;;;;;;;0.00;0.00;;;;;;;7.94;81.88;99696.56;5075048;28;20035;-81
2021/12/31 09:10:43;;;;;;;0.00;0.00;;;;;;;7.95;80.91;99692.84;5074587;28;20020;-81
2021/12/31 09:13:09;;;;;;;0.00;0.00;;;;;;;8.01;81.10;99691.09;5074815;28;20491;-81
2021/12/31 09:15:34;;;;;;;0.00;0.00;;;;;;;8.06;80.27;99683.16;5074461;28;20024;-81
2021/12/31 09:18:00;;;;;;;0.00;0.00;;;;;;;8.16;79.22;99691.28;5074887;28;20410;-81
2021/12/31 09:20:27;;;;;;;0.00;0.00;;;;;;;8.09;79.47;99688.03;5074270;28;20374;-81
2021/12/31 09:22:53;;;;;;;0.00;0.00;;;;;;;8.09;78.83;99688.03;5074594;28;20497;-81
2021/12/31 09:25:18;;;;;;;0.00;0.00;;;;;;;8.08;78.41;99681.06;5074787;28;20032;-81
2021/12/31 09:27:44;;;;;;;0.00;0.00;;;;;;;8.07;79.10;99666.13;5074418;28;20119;-81
2021/12/31 09:30:11;;;;;;;0.03;0.03;;;;;;;8.07;77.73;99668.81;5074403;28;20024;-80
2021/12/31 09:32:36;;;;;;;0.00;0.00;;;;;;;8.04;78.53;99663.16;5074225;28;20032;-81
2021/12/31 09:35:02;;;;;;;1.15;0.60;;;;;;;8.07;79.45;99659.97;5074276;28;20028;-81
2021/12/31 09:37:28;;;;;;;0.00;0.00;;;;;;;8.05;79.13;99644.25;5074161;28;20032;-81
2021/12/31 09:39:53;;;;;;;0.00;0.00;;;;;;;8.10;78.80;99648.84;5074369;28;20028;-81
2021/12/31 09:42:19;;;;;;;0.00;0.00;;;;;;;8.13;79.55;99635.03;5074399;28;20028;-81
2021/12/31 09:44:48;;;;;;;0.00;0.00;;;;;;;8.20;79.11;99629.53;5074102;28;20035;-81
2021/12/31 09:47:18;;;;;;;0.00;0.00;;;;;;;8.24;78.26;99626.16;5074272;28;20122;-80
2021/12/31 09:49:48;;;;;;;0.15;0.15;;;;;;;8.26;78.64;99624.03;5073433;28;20040;-81
2021/12/31 09:52:15;;;;;;;0.00;0.00;;;;;;;8.27;78.59;99616.84;5073991;28;20050;-81
2021/12/31 09:54:46;;;;;;;0.08;0.08;;;;;;;8.36;78.34;99620.72;5073720;28;20165;-81
2021/12/31 09:57:21;;;;;;;1.13;0.43;;;;;;;8.39;78.54;99614.88;5074178;28;20032;-81
2021/12/31 09:59:47;;;;;;;0.10;0.10;;;;;;;8.38;78.16;99591.13;5073758;28;20039;-81
2021/12/31 10:02:15;;;;;;;0.75;0.75;;;;;;;8.51;78.32;99598.78;5074054;28;20111;-81
2021/12/31 10:04:58;;;;;;;0.00;0.00;;;;;;;8.46;77.17;99601.38;5073638;28;20060;-82
2021/12/31 10:07:25;;;;;;;0.00;0.00;;;;;;;8.57;77.37;99607.63;5073426;28;20062;-81
2021/12/31 10:10:05;;;;;;;0.08;0.08;;;;;;;8.56;77.06;99590.84;5073250;28;20031;-81
2021/12/31 10:12:59;;;;;;;0.00;0.00;;;;;;;8.58;77.51;99586.09;5073418;28;20028;-81
2021/12/31 10:15:26;;;;;;;0.55;0.55;;;;;;;8.64;77.14;99582.41;5073659;28;20471;-81
2021/12/31 10:17:52;;;;;;;0.30;0.30;;;;;;;8.49;76.81;99548.41;5073389;28;20471;-82
2021/12/31 10:20:50;;;;;;;0.28;0.28;;;;;;;8.70;76.55;99583.25;5073753;28;20032;-81
2021/12/31 10:23:17;;;;;;;0.30;0.30;;;;;;;8.68;77.50;99565.91;5073442;28;20052;-81
2021/12/31 10:25:49;;;;;;;0.35;0.35;;;;;;;8.75;77.31;99564.66;5073045;28;20075;-82
2021/12/31 10:28:16;;;;;;;1.38;1.35;;;;;;;8.69;77.07;99546.19;5073374;28;20101;-81
2021/12/31 10:30:44;;;;;;;0.00;0.00;;;;;;;8.89;76.92;99564.28;5072953;28;20080;-81
2021/12/31 10:33:10;;;;;;;0.00;0.00;;;;;;;8.92;76.85;99561.91;5072836;28;20050;-81
2021/12/31 10:35:42;;;;;;;0.32;0.32;;;;;;;8.93;76.94;99552.81;5072786;28;20035;-81
2021/12/31 10:38:11;;;;;;;0.05;0.05;;;;;;;9.06;76.75;99556.16;5072969;28;20056;-81
2021/12/31 10:40:40;;;;;;;0.10;0.10;;;;;;;9.16;76.56;99558.13;5073022;28;20479;-81
2021/12/31 10:43:16;;;;;;;;;;;;;;;9.25;76.32;99553.91;5073661;28;20662;-82
2021/12/31 10:45:58;;;;;;;0.00;0.00;;;;;;;9.26;76.58;99535.00;5072944;28;20530;-82
2021/12/31 10:48:48;;;;;;;0.00;0.00;;;;;;;9.28;76.69;99519.50;5072574;28;20122;-82
2021/12/31 10:51:34;;;;;;;0.00;0.00;;;;;;;9.41;75.73;99525.47;5073093;28;20024;-81
2021/12/31 10:56:56;;;;;;;0.10;0.10;;;;;;;9.58;75.71;99534.16;5090784;28;20024;-81
2021/12/31 10:59:22;;;;;;;0.00;0.00;;;;;;;9.64;75.91;99526.16;5072776;28;20036;-81
2021/12/31 11:01:48;;;;;;;0.00;0.00;;;;;;;9.64;75.88;99532.28;5072622;28;20085;-81
2021/12/31 11:04:15;;;;;;;0.00;0.00;;;;;;;9.67;75.33;99523.00;5072910;28;20035;-82
2021/12/31 11:06:41;;;;;;;0.00;0.00;;;;;;;9.75;75.17;99523.31;5072305;28;20044;-81
2021/12/31 11:09:07;;;;;;;0.00;0.00;;;;;;;9.75;74.96;99530.50;5072875;28;20070;-82
2021/12/31 11:11:34;;;;;;;0.00;0.00;;;;;;;9.78;75.00;99521.97;5072629;28;20127;-82
2021/12/31 11:14:02;;;;;;;0.10;0.10;;;;;;;9.81;75.70;99509.97;5072814;28;20471;-82
2021/12/31 11:16:28;;;;;;;0.00;0.00;;;;;;;9.81;74.88;99499.28;5072578;28;20024;-81
2021/12/31 11:18:55;;;;;;;0.00;0.00;;;;;;;9.83;75.24;99505.19;5072386;28;20491;-81
2021/12/31 11:21:20;;;;;;;0.00;0.00;;;;;;;9.87;75.03;99504.38;5072828;28;20048;-81
2021/12/31 11:23:46;;;;;;;0.20;0.20;;;;;;;9.89;74.92;99510.28;5072333;28;20074;-82
2021/12/31 11:26:13;;;;;;;0.00;0.00;;;;;;;9.94;74.99;99507.63;5072633;28;20452;-82
2021/12/31 11:28:43;;;;;;;0.00;0.00;;;;;;;9.94;75.54;99498.81;5072280;28;20027;-81
2021/12/31 11:31:18;;;;;;;0.20;0.20;;;;;;;10.01;75.82;99498.56;5072684;28;20054;-81
2021/12/31 11:34:06;;;;;;;0.47;0.47;;;;;;;9.97;74.22;99495.59;5072465;28;20474;-80
2021/12/31 11:36:51;;;;;;;0.00;0.00;;;;;;;10.03;75.32;99496.44;5071588;28;20031;-81
2021/12/31 11:39:33;;;;;;;0.10;0.10;;;;;;;9.94;75.01;99483.56;5072420;28;20513;-81
2021/12/31 11:42:08;;;;;;;0.20;0.20;;;;;;;9.99;75.21;99493.47;5072571;28;20040;-81
2021/12/31 11:44:37;;;;;;;0.57;0.57;;;;;;;9.92;74.79;99491.06;5076091;28;20115;-81
2021/12/31 11:47:14;;;;;;;1.15;1.15;;;;;;;9.97;75.14;99500.16;5076149;28;20036;-81